createdAt,value
2017-07-20T00:01:51.913Z,19.70
2017-07-20T00:04:19.757Z,19.60
2017-07-20T00:06:48.293Z,19.60
2017-07-20T00:09:16.100Z,19.60
2017-07-20T00:11:43.858Z,19.60
2017-07-20T00:14:12.384Z,19.60
2017-07-20T00:16:40.173Z,19.60
2017-07-20T00:19:07.929Z,19.60
2017-07-20T00:21:35.748Z,19.50
2017-07-20T00:24:03.504Z,19.50
2017-07-20T00:26:31.259Z,19.50
2017-07-20T00:28:59.058Z,19.50
2017-07-20T00:31:26.816Z,19.50
2017-07-20T00:33:54.626Z,19.50
2017-07-20T00:36:23.142Z,19.40
2017-07-20T00:38:50.901Z,19.40
2017-07-20T00:41:18.685Z,19.40
2017-07-20T00:43:46.456Z,19.40
2017-07-20T00:46:14.264Z,19.40
2017-07-20T00:48:42.016Z,19.30
2017-07-20T00:51:10.528Z,19.20
2017-07-20T00:53:38.318Z,19.20
2017-07-20T00:56:06.070Z,19.20
2017-07-20T00:58:33.880Z,19.10
2017-07-20T01:01:02.397Z,19.10
2017-07-20T01:03:30.152Z,19.10
2017-07-20T01:05:57.943Z,19.10
2017-07-20T01:08:25.692Z,19.00
2017-07-20T01:10:53.504Z,19.00
2017-07-20T01:13:22.028Z,19.00
2017-07-20T01:15:49.779Z,19.00
2017-07-20T01:18:17.572Z,19.00
2017-07-20T01:20:45.324Z,19.00
2017-07-20T01:23:13.135Z,19.00
2017-07-20T01:25:40.885Z,18.90
2017-07-20T01:28:08.636Z,19.00
2017-07-20T01:30:36.426Z,19.00
2017-07-20T01:33:04.192Z,19.00
2017-07-20T01:35:32.002Z,19.00
2017-07-20T01:37:59.777Z,19.10
2017-07-20T01:40:27.541Z,19.10
2017-07-20T01:42:55.323Z,19.10
2017-07-20T01:45:23.859Z,19.10
2017-07-20T01:47:51.701Z,19.10
2017-07-20T01:50:19.455Z,19.10
2017-07-20T01:52:47.203Z,19.20
2017-07-20T01:55:15.003Z,19.20
2017-07-20T01:57:42.758Z,19.30
2017-07-20T02:00:10.580Z,19.60
2017-07-20T02:02:39.121Z,19.50
2017-07-20T02:05:06.911Z,19.50
2017-07-20T02:07:35.459Z,19.50
2017-07-20T02:10:03.214Z,19.50
2017-07-20T02:12:31.027Z,19.40
2017-07-20T02:14:59.546Z,19.50
2017-07-20T02:17:27.300Z,19.40
2017-07-20T02:19:55.112Z,19.50
2017-07-20T02:22:22.863Z,19.50
2017-07-20T02:24:50.676Z,19.50
2017-07-20T02:27:18.422Z,19.50
2017-07-20T02:29:46.171Z,19.40
2017-07-20T02:32:14.859Z,19.30
2017-07-20T02:34:42.613Z,19.20
2017-07-20T02:37:11.184Z,19.20
2017-07-20T02:39:38.942Z,19.10
2017-07-20T02:42:07.468Z,19.10
2017-07-20T02:44:35.256Z,19.10
2017-07-20T02:47:03.000Z,19.00
2017-07-20T02:49:30.818Z,18.90
2017-07-20T02:51:58.569Z,19.00
2017-07-20T02:54:26.311Z,19.00
2017-07-20T02:56:54.091Z,19.00
2017-07-20T02:59:21.856Z,18.90
2017-07-20T03:01:49.664Z,18.90
2017-07-20T03:04:17.420Z,18.80
2017-07-20T03:06:45.176Z,18.80
2017-07-20T03:09:12.975Z,18.70
2017-07-20T03:11:40.725Z,18.70
2017-07-20T03:14:08.541Z,18.70
2017-07-20T03:16:37.059Z,18.70
2017-07-20T03:19:04.817Z,18.60
2017-07-20T03:21:32.673Z,18.70
2017-07-20T03:24:00.434Z,18.70
2017-07-20T03:26:28.446Z,18.70
2017-07-20T03:28:56.196Z,18.70
2017-07-20T03:31:23.952Z,18.90
2017-07-20T03:33:51.736Z,19.00
2017-07-20T03:36:19.503Z,19.20
2017-07-20T03:38:48.093Z,19.90
2017-07-20T03:41:16.611Z,20.50
2017-07-20T03:43:44.368Z,20.50
2017-07-20T03:46:12.161Z,20.80
2017-07-20T03:48:39.925Z,20.90
2017-07-20T03:51:07.744Z,20.70
2017-07-20T03:53:35.517Z,20.60
2017-07-20T03:56:03.276Z,20.50
2017-07-20T03:58:31.073Z,20.40
2017-07-20T04:00:58.829Z,20.30
2017-07-20T04:03:26.647Z,20.30
2017-07-20T04:05:54.399Z,20.30
2017-07-20T04:08:22.921Z,20.40
2017-07-20T04:10:50.710Z,20.40
2017-07-20T04:13:18.473Z,20.80
2017-07-20T04:15:46.290Z,21.70
2017-07-20T04:18:14.053Z,22.80
2017-07-20T04:20:41.814Z,23.50
2017-07-20T04:23:09.607Z,24.40
2017-07-20T04:25:37.395Z,25.00
2017-07-20T04:28:05.200Z,25.40
2017-07-20T04:30:32.954Z,25.80
2017-07-20T04:33:00.721Z,26.50
2017-07-20T04:35:28.505Z,26.80
2017-07-20T04:37:56.289Z,26.30
2017-07-20T04:40:24.115Z,26.20
2017-07-20T04:42:51.873Z,25.90
2017-07-20T04:45:19.673Z,25.50
2017-07-20T04:47:48.638Z,25.20
2017-07-20T04:50:17.229Z,25.20
2017-07-20T04:52:45.032Z,25.20
2017-07-20T04:55:12.785Z,25.70
2017-07-20T04:57:40.539Z,26.10
2017-07-20T05:00:09.142Z,26.40
2017-07-20T05:02:36.913Z,27.10
2017-07-20T05:05:04.722Z,27.80
2017-07-20T05:07:32.788Z,28.10
2017-07-20T05:10:00.557Z,28.20
2017-07-20T05:12:28.343Z,28.30
2017-07-20T05:14:56.099Z,28.60
2017-07-20T05:17:23.912Z,28.80
2017-07-20T05:19:51.670Z,29.10
2017-07-20T05:22:19.416Z,29.70
2017-07-20T05:24:47.483Z,30.30
2017-07-20T05:27:15.936Z,31.00
2017-07-20T05:29:44.526Z,31.90
2017-07-20T05:32:12.303Z,31.80
2017-07-20T05:34:40.063Z,32.40
2017-07-20T05:37:07.861Z,32.70
2017-07-20T05:39:35.620Z,33.30
2017-07-20T05:42:03.458Z,33.90
2017-07-20T05:44:32.129Z,34.70
2017-07-20T05:47:00.645Z,34.10
2017-07-20T05:49:28.438Z,34.10
2017-07-20T05:51:56.198Z,33.70
2017-07-20T05:54:24.023Z,32.70
2017-07-20T05:56:51.789Z,32.40
2017-07-20T05:59:19.556Z,33.10
2017-07-20T06:01:47.415Z,34.20
2017-07-20T06:04:15.160Z,34.60
2017-07-20T06:06:43.009Z,35.40
2017-07-20T06:09:10.781Z,35.60
2017-07-20T06:11:38.572Z,35.70
2017-07-20T06:14:06.369Z,36.60
2017-07-20T06:16:34.132Z,36.70
2017-07-20T06:19:01.953Z,36.80
2017-07-20T06:21:29.726Z,36.60
2017-07-20T06:23:57.485Z,36.90
2017-07-20T06:26:25.274Z,37.50
2017-07-20T06:28:53.033Z,38.00
2017-07-20T06:31:20.833Z,38.20
2017-07-20T06:33:48.600Z,38.40
2017-07-20T06:36:16.402Z,38.30
2017-07-20T06:38:44.179Z,38.20
2017-07-20T06:41:11.936Z,38.30
2017-07-20T06:43:39.786Z,37.90
2017-07-20T06:46:07.536Z,37.90
2017-07-20T06:48:35.292Z,38.70
2017-07-20T06:51:03.077Z,39.10
2017-07-20T06:53:30.825Z,39.40
2017-07-20T06:55:58.625Z,40.40
2017-07-20T06:58:26.385Z,40.60
2017-07-20T07:00:54.890Z,42.20
2017-07-20T07:03:22.665Z,42.20
2017-07-20T07:05:50.400Z,42.10
2017-07-20T07:08:18.965Z,43.70
2017-07-20T07:10:46.701Z,43.60
2017-07-20T07:13:14.444Z,43.10
2017-07-20T07:15:42.221Z,41.80
2017-07-20T07:18:09.966Z,42.70
2017-07-20T07:20:37.775Z,42.10
2017-07-20T07:23:06.285Z,41.80
2017-07-20T07:25:34.028Z,41.80
2017-07-20T07:28:02.565Z,41.20
2017-07-20T07:30:30.307Z,41.10
2017-07-20T07:32:58.136Z,41.80
2017-07-20T07:35:25.877Z,43.00
2017-07-20T07:37:53.624Z,43.30
2017-07-20T07:40:21.425Z,43.40
2017-07-20T07:42:49.160Z,43.70
2017-07-20T07:45:17.728Z,43.70
2017-07-20T07:47:45.463Z,43.60
2017-07-20T07:50:13.204Z,42.70
2017-07-20T07:52:40.990Z,42.60
2017-07-20T07:55:08.739Z,42.70
2017-07-20T07:57:36.538Z,43.10
2017-07-20T08:00:04.280Z,43.30
2017-07-20T08:02:32.039Z,44.20
2017-07-20T08:04:59.807Z,44.70
2017-07-20T08:07:27.547Z,44.50
2017-07-20T08:09:55.353Z,45.40
2017-07-20T08:12:23.859Z,44.70
2017-07-20T08:14:51.604Z,44.70
2017-07-20T08:17:20.131Z,43.70
2017-07-20T08:19:47.867Z,43.70
2017-07-20T08:22:15.690Z,42.80
2017-07-20T08:24:43.463Z,41.50
2017-07-20T08:27:11.975Z,38.80
2017-07-20T08:29:39.748Z,38.80
2017-07-20T08:32:07.498Z,38.10
2017-07-20T08:34:35.295Z,37.10
2017-07-20T08:37:03.088Z,36.30
2017-07-20T08:39:31.595Z,34.90
2017-07-20T08:41:59.380Z,34.90
2017-07-20T08:44:27.123Z,34.60
2017-07-20T08:46:55.623Z,34.30
2017-07-20T08:49:23.368Z,33.50
2017-07-20T08:51:51.112Z,33.20
2017-07-20T08:54:18.890Z,32.90
2017-07-20T08:56:46.636Z,32.40
2017-07-20T08:59:14.451Z,32.30
2017-07-20T09:01:42.199Z,32.00
2017-07-20T09:04:09.976Z,31.70
2017-07-20T09:06:37.762Z,31.40
2017-07-20T09:09:06.276Z,30.70
2017-07-20T09:11:34.093Z,30.60
2017-07-20T09:14:02.608Z,30.50
2017-07-20T09:16:30.370Z,30.50
2017-07-20T09:18:58.151Z,30.20
2017-07-20T09:21:25.907Z,30.30
2017-07-20T09:23:53.718Z,30.50
2017-07-20T09:26:22.233Z,30.50
2017-07-20T09:28:49.977Z,30.50
2017-07-20T09:31:18.524Z,30.20
2017-07-20T09:33:46.271Z,30.20
2017-07-20T09:36:14.068Z,29.90
2017-07-20T09:38:42.588Z,29.60
2017-07-20T09:41:10.340Z,29.60
2017-07-20T09:43:38.137Z,29.60
2017-07-20T09:46:05.882Z,29.30
2017-07-20T09:48:33.663Z,29.10
2017-07-20T09:51:01.412Z,29.00
2017-07-20T09:53:29.225Z,28.70
2017-07-20T09:55:57.753Z,28.10
2017-07-20T09:58:25.491Z,28.00
2017-07-20T10:00:53.284Z,28.10
2017-07-20T10:03:21.035Z,27.70
2017-07-20T10:05:48.833Z,27.60
2017-07-20T10:08:16.575Z,27.40
2017-07-20T10:10:44.320Z,27.40
2017-07-20T10:13:12.096Z,27.20
2017-07-20T10:15:39.843Z,27.10
2017-07-20T10:18:07.649Z,26.90
2017-07-20T10:20:36.159Z,26.60
2017-07-20T10:23:03.904Z,26.50
2017-07-20T10:25:31.688Z,26.50
2017-07-20T10:27:59.431Z,26.40
2017-07-20T10:30:27.229Z,26.20
2017-07-20T10:32:54.972Z,26.10
2017-07-20T10:35:22.720Z,26.20
2017-07-20T10:37:50.509Z,26.40
2017-07-20T10:40:18.253Z,26.60
2017-07-20T10:42:46.052Z,26.60
2017-07-20T10:45:13.802Z,26.70
2017-07-20T10:47:41.548Z,26.50
2017-07-20T10:50:09.331Z,26.60
2017-07-20T10:52:37.073Z,26.60
2017-07-20T10:55:04.879Z,26.40
2017-07-20T10:57:32.634Z,26.50
2017-07-20T11:00:00.380Z,26.40
2017-07-20T11:02:28.172Z,26.70
2017-07-20T11:04:56.687Z,26.90
2017-07-20T11:07:24.487Z,26.80
2017-07-20T11:09:52.226Z,27.00
2017-07-20T11:12:19.984Z,27.20
2017-07-20T11:14:47.763Z,27.30
2017-07-20T11:17:15.513Z,27.30
2017-07-20T11:19:43.322Z,27.50
2017-07-20T11:22:11.836Z,27.80
2017-07-20T11:24:39.596Z,27.80
2017-07-20T11:27:07.376Z,28.00
2017-07-20T11:29:35.115Z,28.70
2017-07-20T11:32:02.919Z,28.70
2017-07-20T11:34:30.660Z,28.80
2017-07-20T11:36:58.399Z,28.80
2017-07-20T11:39:26.180Z,29.10
2017-07-20T11:41:53.925Z,29.60
2017-07-20T11:44:21.738Z,30.00
2017-07-20T11:46:49.482Z,30.30
2017-07-20T11:49:17.231Z,30.20
2017-07-20T11:51:45.033Z,29.70
2017-07-20T11:54:12.785Z,29.60
2017-07-20T11:56:40.623Z,29.90
2017-07-20T11:59:08.395Z,30.20
2017-07-20T12:01:36.160Z,30.70
2017-07-20T12:04:03.947Z,31.00
2017-07-20T12:06:32.469Z,30.70
2017-07-20T12:09:00.283Z,30.70
2017-07-20T12:11:28.032Z,30.70
2017-07-20T12:13:55.788Z,30.60
2017-07-20T12:16:23.571Z,30.60
2017-07-20T12:18:52.079Z,30.10
2017-07-20T12:21:20.194Z,30.10
2017-07-20T12:23:47.939Z,29.70
2017-07-20T12:26:15.687Z,29.80
2017-07-20T12:28:43.464Z,29.60
2017-07-20T12:31:11.205Z,29.00
2017-07-20T12:33:39.018Z,28.40
2017-07-20T12:36:06.761Z,28.20
2017-07-20T12:38:34.565Z,28.20
2017-07-20T12:41:03.104Z,28.70
2017-07-20T12:43:30.851Z,28.70
2017-07-20T12:45:58.648Z,29.00
2017-07-20T12:48:26.392Z,29.20
2017-07-20T12:50:54.131Z,29.10
2017-07-20T12:53:21.907Z,29.20
2017-07-20T12:55:49.660Z,29.20
2017-07-20T12:58:17.463Z,29.20
2017-07-20T13:00:45.978Z,29.10
2017-07-20T13:03:13.733Z,29.00
2017-07-20T13:05:41.524Z,29.00
2017-07-20T13:08:09.291Z,29.00
2017-07-20T13:10:37.123Z,29.10
2017-07-20T13:13:04.884Z,29.20
2017-07-20T13:15:32.660Z,29.50
2017-07-20T13:18:00.464Z,29.60
2017-07-20T13:20:28.231Z,29.90
2017-07-20T13:22:56.822Z,29.80
2017-07-20T13:25:25.364Z,29.70
2017-07-20T13:27:53.131Z,29.70
2017-07-20T13:30:20.928Z,29.80
2017-07-20T13:32:49.488Z,29.70
2017-07-20T13:35:17.321Z,29.70
2017-07-20T13:37:45.101Z,29.60
2017-07-20T13:40:12.878Z,29.60
2017-07-20T13:42:40.687Z,29.50
2017-07-20T13:45:08.470Z,29.50
2017-07-20T13:47:36.302Z,29.20
2017-07-20T13:50:04.138Z,29.10
2017-07-20T13:52:32.671Z,29.40
2017-07-20T13:55:00.475Z,29.40
2017-07-20T13:57:28.285Z,29.60
2017-07-20T13:59:56.106Z,29.70
2017-07-20T14:02:24.626Z,29.70
2017-07-20T14:04:52.374Z,29.60
2017-07-20T14:07:20.158Z,29.80
2017-07-20T14:09:47.906Z,29.90
2017-07-20T14:12:15.725Z,30.00
2017-07-20T14:14:43.481Z,30.00
2017-07-20T14:17:11.235Z,30.20
2017-07-20T14:19:39.022Z,30.30
2017-07-20T14:22:07.581Z,30.40
2017-07-20T14:24:35.390Z,30.40
2017-07-20T14:27:03.147Z,30.60
2017-07-20T14:29:30.905Z,30.80
2017-07-20T14:31:58.691Z,30.80
2017-07-20T14:34:26.448Z,30.80
2017-07-20T14:36:54.282Z,30.60
2017-07-20T14:39:22.040Z,30.50
2017-07-20T14:41:49.794Z,30.40
2017-07-20T14:44:18.363Z,30.40
2017-07-20T14:46:46.182Z,30.40
2017-07-20T14:49:13.993Z,30.30
2017-07-20T14:51:42.523Z,29.90
2017-07-20T14:54:10.282Z,29.80
2017-07-20T14:56:38.077Z,30.10
2017-07-20T14:59:05.829Z,30.20
2017-07-20T15:01:33.650Z,30.30
2017-07-20T15:04:01.405Z,30.30
2017-07-20T15:06:29.192Z,30.10
2017-07-20T15:08:56.981Z,29.80
2017-07-20T15:11:24.732Z,29.80
2017-07-20T15:13:52.557Z,29.50
2017-07-20T15:16:20.314Z,29.60
2017-07-20T15:18:48.086Z,29.90
2017-07-20T15:21:15.878Z,30.00
2017-07-20T15:23:43.638Z,29.80
2017-07-20T15:26:11.452Z,29.70
2017-07-20T15:28:39.974Z,29.40
2017-07-20T15:31:07.730Z,29.40
2017-07-20T15:33:35.562Z,29.30
2017-07-20T15:36:03.321Z,29.20
2017-07-20T15:38:31.137Z,29.20
2017-07-20T15:40:58.910Z,29.10
2017-07-20T15:43:26.710Z,29.10
2017-07-20T15:45:54.498Z,29.00
2017-07-20T15:48:22.253Z,29.00
2017-07-20T15:50:50.074Z,29.00
2017-07-20T15:53:18.597Z,28.70
2017-07-20T15:55:46.355Z,28.70
2017-07-20T15:58:14.138Z,28.60
2017-07-20T16:00:41.902Z,28.60
2017-07-20T16:03:09.732Z,28.60
2017-07-20T16:05:37.500Z,28.70
2017-07-20T16:08:05.266Z,28.70
2017-07-20T16:10:33.066Z,28.70
2017-07-20T16:13:00.823Z,28.50
2017-07-20T16:15:28.649Z,28.40
2017-07-20T16:17:56.406Z,28.30
2017-07-20T16:20:24.167Z,28.30
2017-07-20T16:22:51.980Z,28.30
2017-07-20T16:25:19.747Z,28.30
2017-07-20T16:27:47.570Z,28.40
2017-07-20T16:30:15.331Z,28.40
2017-07-20T16:32:43.136Z,28.40
2017-07-20T16:35:10.926Z,28.40
2017-07-20T16:37:38.684Z,28.40
2017-07-20T16:40:07.278Z,28.40
2017-07-20T16:42:35.050Z,28.40
2017-07-20T16:45:02.816Z,28.50
2017-07-20T16:47:30.614Z,28.40
2017-07-20T16:49:58.391Z,28.40
2017-07-20T16:52:26.212Z,28.40
2017-07-20T16:54:53.974Z,28.30
2017-07-20T16:57:21.729Z,28.20
2017-07-20T16:59:49.515Z,28.20
2017-07-20T17:02:17.275Z,28.20
2017-07-20T17:04:45.098Z,28.20
2017-07-20T17:07:12.877Z,28.20
2017-07-20T17:09:40.630Z,28.30
2017-07-20T17:12:08.423Z,28.20
2017-07-20T17:14:36.191Z,28.20
2017-07-20T17:17:04.018Z,28.10
2017-07-20T17:19:31.778Z,28.00
2017-07-20T17:21:59.534Z,27.90
2017-07-20T17:24:27.330Z,27.80
2017-07-20T17:26:55.091Z,27.70
2017-07-20T17:29:22.926Z,27.70
2017-07-20T17:31:50.686Z,27.70
2017-07-20T17:34:18.482Z,27.70
2017-07-20T17:36:46.276Z,27.70
2017-07-20T17:39:14.083Z,27.70
2017-07-20T17:41:42.090Z,27.60
2017-07-20T17:44:09.874Z,27.50
2017-07-20T17:46:38.404Z,27.50
2017-07-20T17:49:06.201Z,27.40
2017-07-20T17:51:33.970Z,27.40
2017-07-20T17:54:02.551Z,27.20
2017-07-20T17:56:30.315Z,27.20
2017-07-20T17:58:58.080Z,27.20
2017-07-20T18:01:26.634Z,27.10
2017-07-20T18:03:54.423Z,27.10
2017-07-20T18:06:22.247Z,27.10
2017-07-20T18:08:50.006Z,27.00
2017-07-20T18:11:17.786Z,26.90
2017-07-20T18:13:45.579Z,27.00
2017-07-20T18:16:13.341Z,26.80
2017-07-20T18:18:41.168Z,26.70
2017-07-20T18:21:08.930Z,26.60
2017-07-20T18:23:36.690Z,26.50
2017-07-20T18:26:04.514Z,26.50
2017-07-20T18:28:32.290Z,26.50
2017-07-20T18:31:00.111Z,26.40
2017-07-20T18:33:28.649Z,26.40
2017-07-20T18:35:56.414Z,26.40
2017-07-20T18:38:24.202Z,26.20
2017-07-20T18:40:52.783Z,26.10
2017-07-20T18:43:21.379Z,26.00
2017-07-20T18:45:49.175Z,26.00
2017-07-20T18:48:16.940Z,26.00
2017-07-20T18:50:44.730Z,26.00
2017-07-20T18:53:12.491Z,25.90
2017-07-20T18:55:40.317Z,25.80
2017-07-20T18:58:08.073Z,25.80
2017-07-20T19:00:35.832Z,25.70
2017-07-20T19:03:03.622Z,25.70
2017-07-20T19:05:31.382Z,25.60
2017-07-20T19:07:59.205Z,25.60
2017-07-20T19:10:26.970Z,25.50
2017-07-20T19:12:54.737Z,25.50
2017-07-20T19:15:22.525Z,25.40
2017-07-20T19:17:50.285Z,25.30
2017-07-20T19:20:18.102Z,25.30
2017-07-20T19:22:46.617Z,25.20
2017-07-20T19:25:14.366Z,25.20
2017-07-20T19:27:42.157Z,25.10
2017-07-20T19:30:09.914Z,25.10
2017-07-20T19:32:37.725Z,25.00
2017-07-20T19:35:06.255Z,24.80
2017-07-20T19:37:34.029Z,24.80
2017-07-20T19:40:01.822Z,24.80
2017-07-20T19:42:30.351Z,24.70
2017-07-20T19:44:58.173Z,24.70
2017-07-20T19:47:26.746Z,24.60
2017-07-20T19:49:55.266Z,24.60
2017-07-20T19:52:23.056Z,24.50
2017-07-20T19:54:50.814Z,24.50
2017-07-20T19:57:18.653Z,24.40
2017-07-20T19:59:46.409Z,24.40
2017-07-20T20:02:14.171Z,24.30
2017-07-20T20:04:41.958Z,24.30
2017-07-20T20:07:09.717Z,24.30
2017-07-20T20:09:37.538Z,24.30
2017-07-20T20:12:05.294Z,24.30
2017-07-20T20:14:33.053Z,24.20
2017-07-20T20:17:01.662Z,24.00
2017-07-20T20:19:29.424Z,23.90
2017-07-20T20:21:57.246Z,23.90
2017-07-20T20:24:25.777Z,23.90
2017-07-20T20:26:53.557Z,23.90
2017-07-20T20:29:21.343Z,24.00
2017-07-20T20:31:49.873Z,23.90
2017-07-20T20:34:17.698Z,23.90
2017-07-20T20:36:45.466Z,23.90
2017-07-20T20:39:13.990Z,23.80
2017-07-20T20:41:41.852Z,23.80
2017-07-20T20:44:09.614Z,23.60
2017-07-20T20:46:37.433Z,23.60
2017-07-20T20:49:05.962Z,23.70
2017-07-20T20:51:33.727Z,23.70
2017-07-20T20:54:01.521Z,23.60
2017-07-20T20:56:30.052Z,23.50
2017-07-20T20:58:57.872Z,23.50
2017-07-20T21:01:26.415Z,23.40
2017-07-20T21:03:54.174Z,23.40
2017-07-20T21:06:22.277Z,23.30
2017-07-20T21:08:50.808Z,23.20
2017-07-20T21:11:18.624Z,23.20
2017-07-20T21:13:47.158Z,23.20
2017-07-20T21:16:14.922Z,23.20
2017-07-20T21:18:42.720Z,23.10
2017-07-20T21:21:11.247Z,23.00
2017-07-20T21:23:39.065Z,23.00
2017-07-20T21:26:07.591Z,22.90
2017-07-20T21:28:35.357Z,22.80
2017-07-20T21:31:03.152Z,22.80
2017-07-20T21:33:30.917Z,22.70
2017-07-20T21:35:58.861Z,22.70
2017-07-20T21:38:26.625Z,22.70
2017-07-20T21:40:54.385Z,22.60
2017-07-20T21:43:22.174Z,22.60
2017-07-20T21:45:49.930Z,22.50
2017-07-20T21:48:17.760Z,22.50
2017-07-20T21:50:45.518Z,22.50
2017-07-20T21:53:13.285Z,22.40
2017-07-20T21:55:41.076Z,22.40
2017-07-20T21:58:08.838Z,22.40
2017-07-20T22:00:36.658Z,22.30
2017-07-20T22:03:04.414Z,22.30
2017-07-20T22:05:32.174Z,22.30
2017-07-20T22:07:59.970Z,22.30
2017-07-20T22:10:27.730Z,22.30
2017-07-20T22:12:55.546Z,22.30
2017-07-20T22:15:23.324Z,22.30
2017-07-20T22:17:51.081Z,22.30
2017-07-20T22:20:19.782Z,22.50
2017-07-20T22:22:48.117Z,22.60
2017-07-20T22:25:17.330Z,22.70
2017-07-20T22:27:45.094Z,22.70
2017-07-20T22:30:12.842Z,22.80
2017-07-20T22:32:40.630Z,22.80
2017-07-20T22:35:08.385Z,22.90
2017-07-20T22:37:36.231Z,22.90
2017-07-20T22:40:03.978Z,22.80
2017-07-20T22:42:32.498Z,22.90
2017-07-20T22:45:00.285Z,22.90
2017-07-20T22:47:28.032Z,23.00
2017-07-20T22:49:55.845Z,23.00
2017-07-20T22:52:23.604Z,22.90
2017-07-20T22:54:51.391Z,23.00
2017-07-20T22:57:19.203Z,23.00
2017-07-20T22:59:46.955Z,22.90
2017-07-20T23:02:14.762Z,22.90
2017-07-20T23:04:42.520Z,22.90
2017-07-20T23:07:10.273Z,22.80
2017-07-20T23:09:39.003Z,22.80
2017-07-20T23:12:06.758Z,22.80
2017-07-20T23:14:34.578Z,22.70
2017-07-20T23:17:03.098Z,22.70
2017-07-20T23:19:30.858Z,22.60
2017-07-20T23:21:58.640Z,22.60
2017-07-20T23:24:26.393Z,22.60
2017-07-20T23:26:54.200Z,22.50
2017-07-20T23:29:22.713Z,22.50
2017-07-20T23:31:50.465Z,22.50
2017-07-20T23:34:18.278Z,22.50
2017-07-20T23:36:46.051Z,22.40
2017-07-20T23:39:13.886Z,22.40
2017-07-20T23:41:41.679Z,22.40
2017-07-20T23:44:09.497Z,22.40
2017-07-20T23:46:37.294Z,22.40
2017-07-20T23:49:05.046Z,22.40
2017-07-20T23:51:32.865Z,22.50
2017-07-20T23:54:00.618Z,22.50
2017-07-20T23:56:28.381Z,22.50
2017-07-20T23:58:56.163Z,22.60
